createdAt,value
2018-10-19T00:00:34.819Z,63.80
2018-10-19T00:03:07.062Z,61.80
2018-10-19T00:05:39.200Z,66.20
2018-10-19T00:08:11.343Z,65.60
2018-10-19T00:10:43.304Z,68.60
2018-10-19T00:13:15.420Z,71.20
2018-10-19T00:15:47.345Z,66.80
2018-10-19T00:18:19.177Z,70.60
2018-10-19T00:20:51.031Z,66.20
2018-10-19T00:23:23.094Z,63.40
2018-10-19T00:25:55.097Z,65.80
2018-10-19T00:28:27.304Z,75.00
2018-10-19T00:30:59.253Z,70.00
2018-10-19T00:33:31.397Z,63.40
2018-10-19T00:36:04.025Z,65.60
2018-10-19T00:38:36.176Z,65.40
2018-10-19T00:41:08.304Z,65.20
2018-10-19T00:43:41.087Z,66.60
2018-10-19T00:46:13.079Z,64.60
2018-10-19T00:48:45.141Z,66.40
2018-10-19T00:51:17.146Z,70.40
2018-10-19T00:53:49.374Z,68.00
2018-10-19T00:56:21.445Z,60.40
2018-10-19T00:58:53.745Z,69.80
2018-10-19T01:01:25.749Z,73.00
2018-10-19T01:03:57.913Z,65.40
2018-10-19T01:06:30.418Z,66.00
2018-10-19T01:09:02.712Z,62.60
2018-10-19T01:11:34.762Z,64.40
2018-10-19T01:14:07.107Z,64.60
2018-10-19T01:16:39.187Z,64.00
2018-10-19T01:19:11.242Z,62.80
2018-10-19T01:21:44.262Z,65.60
2018-10-19T01:24:16.383Z,61.60
2018-10-19T01:26:48.434Z,68.60
2018-10-19T01:29:20.473Z,64.00
2018-10-19T01:31:52.609Z,68.40
2018-10-19T01:34:24.765Z,72.40
2018-10-19T01:36:57.517Z,83.00
2018-10-19T01:39:29.531Z,76.00
2018-10-19T01:42:01.147Z,85.20
2018-10-19T01:44:34.075Z,106.60
2018-10-19T01:47:06.286Z,82.60
2018-10-19T01:49:38.488Z,84.40
2018-10-19T01:52:10.500Z,73.80
2018-10-19T01:54:42.641Z,72.80
2018-10-19T01:57:14.707Z,68.80
2018-10-19T01:59:46.862Z,63.40
2018-10-19T02:02:19.048Z,62.60
2018-10-19T02:04:50.943Z,60.80
2018-10-19T02:07:23.181Z,60.60
2018-10-19T02:09:55.509Z,59.80
2018-10-19T02:12:27.681Z,60.00
2018-10-19T02:14:59.787Z,60.40
2018-10-19T02:17:31.860Z,62.20
2018-10-19T02:20:04.115Z,63.60
2018-10-19T02:22:36.286Z,60.40
2018-10-19T02:25:08.447Z,61.20
2018-10-19T02:27:40.459Z,62.40
2018-10-19T02:30:12.754Z,61.00
2018-10-19T02:32:44.670Z,62.80
2018-10-19T02:35:16.890Z,63.00
2018-10-19T02:37:49.305Z,59.60
2018-10-19T02:40:21.402Z,60.00
2018-10-19T02:42:53.208Z,61.80
2018-10-19T02:45:26.547Z,68.40
2018-10-19T02:47:58.559Z,64.00
2018-10-19T02:50:30.456Z,77.60
2018-10-19T02:53:02.663Z,74.80
2018-10-19T02:55:34.493Z,65.80
2018-10-19T02:58:06.377Z,73.40
2018-10-19T03:00:38.504Z,74.00
2018-10-19T03:03:10.601Z,65.80
2018-10-19T03:05:43.050Z,73.20
2018-10-19T03:08:15.543Z,75.80
2018-10-19T03:10:47.594Z,78.20
2018-10-19T03:13:19.584Z,79.00
2018-10-19T03:15:51.678Z,86.60
2018-10-19T03:18:23.632Z,82.80
2018-10-19T03:20:55.868Z,70.40
2018-10-19T03:23:27.953Z,72.40
2018-10-19T03:26:00.145Z,76.60
2018-10-19T03:28:32.298Z,82.80
2018-10-19T03:31:04.850Z,79.40
2018-10-19T03:33:36.947Z,77.40
2018-10-19T03:36:09.028Z,90.00
2018-10-19T03:38:41.606Z,80.60
2018-10-19T03:41:13.591Z,90.00
2018-10-19T03:43:45.611Z,74.80
2018-10-19T03:46:18.784Z,87.00
2018-10-19T03:48:50.893Z,81.80
2018-10-19T03:51:22.994Z,88.00
2018-10-19T03:53:55.071Z,82.80
2018-10-19T03:56:27.087Z,86.60
2018-10-19T03:58:59.279Z,85.40
2018-10-19T04:01:31.292Z,88.80
2018-10-19T04:04:03.572Z,90.60
2018-10-19T04:06:35.905Z,82.40
2018-10-19T04:09:12.955Z,80.80
2018-10-19T04:11:45.035Z,90.20
2018-10-19T04:14:16.842Z,88.00
2018-10-19T04:16:48.970Z,90.20
2018-10-19T04:19:21.244Z,94.40
2018-10-19T04:21:53.193Z,95.80
2018-10-19T04:24:25.301Z,98.00
2018-10-19T04:26:57.738Z,92.20
2018-10-19T04:29:29.919Z,94.00
2018-10-19T04:32:01.972Z,104.40
2018-10-19T04:34:34.144Z,109.60
2018-10-19T04:37:07.337Z,103.60
2018-10-19T04:39:39.990Z,105.40
2018-10-19T04:42:12.789Z,102.80
2018-10-19T04:44:44.976Z,97.40
2018-10-19T04:47:17.474Z,100.80
2018-10-19T04:49:49.504Z,103.00
2018-10-19T05:06:42.437Z,97.80
2018-10-19T06:54:29.367Z,64.40
2018-10-19T06:57:01.791Z,67.80
2018-10-19T06:59:34.060Z,62.00
2018-10-19T07:02:06.453Z,64.20
2018-10-19T07:04:39.755Z,61.60
2018-10-19T07:07:12.825Z,66.80
2018-10-19T07:09:46.144Z,59.80
2018-10-19T07:12:18.681Z,55.20
2018-10-19T07:14:51.511Z,53.20
2018-10-19T07:17:24.297Z,51.00
2018-10-19T07:19:56.425Z,55.00
2018-10-19T07:22:28.326Z,48.20
2018-10-19T07:25:00.680Z,47.00
2018-10-19T07:27:32.622Z,54.00
2018-10-19T07:30:05.057Z,49.40
2018-10-19T07:32:37.106Z,50.40
2018-10-19T07:35:09.668Z,48.00
2018-10-19T07:41:38.384Z,45.80
2018-10-19T07:44:10.381Z,59.40
2018-10-19T07:46:42.611Z,50.60
2018-10-19T07:49:14.730Z,48.60
2018-10-19T07:51:46.804Z,44.80
2018-10-19T07:54:18.964Z,50.20
2018-10-19T07:56:51.827Z,47.00
2018-10-19T07:59:23.600Z,45.20
2018-10-19T08:01:55.849Z,45.80
2018-10-19T08:04:27.687Z,47.20
2018-10-19T08:06:59.869Z,45.00
2018-10-19T08:09:32.399Z,46.20
2018-10-19T08:12:04.619Z,47.00
2018-10-19T08:14:36.671Z,45.00
2018-10-19T08:17:08.914Z,43.20
2018-10-19T08:19:40.709Z,40.40
2018-10-19T08:22:12.837Z,42.80
2018-10-19T08:24:44.996Z,40.60
2018-10-19T08:27:17.295Z,43.20
2018-10-19T08:29:49.377Z,44.80
2018-10-19T08:32:21.268Z,42.00
2018-10-19T08:34:53.148Z,39.60
2018-10-19T08:37:25.560Z,43.40
2018-10-19T08:39:58.270Z,40.00
2018-10-19T08:42:30.251Z,42.40
2018-10-19T08:45:02.168Z,39.00
2018-10-19T08:47:34.032Z,41.40
2018-10-19T08:50:06.051Z,43.80
2018-10-19T08:52:38.185Z,41.60
2018-10-19T08:55:10.138Z,41.40
2018-10-19T08:57:43.171Z,42.40
2018-10-19T09:00:15.265Z,37.40
2018-10-19T09:02:47.418Z,37.20
2018-10-19T09:05:19.527Z,40.80
2018-10-19T09:07:51.682Z,38.00
2018-10-19T09:10:24.741Z,39.80
2018-10-19T09:12:57.289Z,38.80
2018-10-19T09:15:29.501Z,38.80
2018-10-19T09:18:01.437Z,37.40
2018-10-19T09:20:33.585Z,40.80
2018-10-19T09:23:06.000Z,37.60
2018-10-19T09:25:38.036Z,37.00
2018-10-19T09:28:10.001Z,38.80
2018-10-19T09:30:42.194Z,37.40
2018-10-19T09:33:14.431Z,36.60
2018-10-19T09:35:46.519Z,35.00
2018-10-19T09:38:18.745Z,37.00
2018-10-19T09:40:51.131Z,34.60
2018-10-19T09:43:23.636Z,38.40
2018-10-19T09:45:55.650Z,40.40
2018-10-19T09:48:27.733Z,39.40
2018-10-19T09:50:59.731Z,33.00
2018-10-19T09:53:31.629Z,34.00
2018-10-19T09:56:03.865Z,38.60
2018-10-19T09:58:35.860Z,35.40
2018-10-19T10:01:12.552Z,38.20
2018-10-19T10:03:44.723Z,37.20
2018-10-19T10:06:16.467Z,42.40
2018-10-19T10:08:48.663Z,40.40
2018-10-19T10:11:21.461Z,43.40
2018-10-19T10:13:53.581Z,41.00
2018-10-19T10:16:25.424Z,41.80
2018-10-19T10:18:57.353Z,40.60
2018-10-19T10:21:28.961Z,42.20
2018-10-19T10:24:01.244Z,38.60
2018-10-19T10:26:33.209Z,40.40
2018-10-19T10:29:05.483Z,43.00
2018-10-19T10:31:37.633Z,43.80
2018-10-19T10:34:09.557Z,43.80
2018-10-19T10:36:41.603Z,41.40
2018-10-19T10:39:15.074Z,44.80
2018-10-19T10:41:47.971Z,44.40
2018-10-19T10:44:20.139Z,43.20
2018-10-19T10:46:52.311Z,44.20
2018-10-19T10:49:24.287Z,44.00
2018-10-19T10:51:56.080Z,41.60
2018-10-19T10:54:28.188Z,43.60
2018-10-19T10:57:00.155Z,45.60
2018-10-19T10:59:32.455Z,43.00
2018-10-19T11:02:04.173Z,45.20
2018-10-19T11:04:36.272Z,45.00
2018-10-19T11:07:08.169Z,46.20
2018-10-19T11:09:40.433Z,46.00
2018-10-19T11:12:12.840Z,45.20
2018-10-19T11:14:44.798Z,48.40
2018-10-19T11:17:16.536Z,45.60
2018-10-19T11:19:48.628Z,47.40
2018-10-19T11:22:20.739Z,47.80
2018-10-19T11:24:52.939Z,47.60
2018-10-19T11:27:24.968Z,46.20
2018-10-19T11:29:57.056Z,48.80
2018-10-19T11:32:29.341Z,55.20
2018-10-19T11:35:01.456Z,59.80
2018-10-19T11:37:33.613Z,59.80
2018-10-19T11:40:30.976Z,61.00
2018-10-19T11:43:03.888Z,71.60
2018-10-19T11:45:36.854Z,75.00
2018-10-19T11:48:08.655Z,73.60
2018-10-19T11:50:40.847Z,79.00
2018-10-19T11:53:12.817Z,164.20
2018-10-19T11:55:45.014Z,123.20
2018-10-19T11:58:17.039Z,125.60
2018-10-19T12:00:48.975Z,138.00
2018-10-19T12:03:20.814Z,142.60
2018-10-19T12:05:52.758Z,122.60
2018-10-19T12:08:24.727Z,106.60
2018-10-19T12:10:56.729Z,99.80
2018-10-19T12:13:28.838Z,100.20
2018-10-19T12:16:01.154Z,97.00
2018-10-19T12:18:33.377Z,83.00
2018-10-19T12:21:05.669Z,86.80
2018-10-19T12:23:37.664Z,84.40
2018-10-19T12:26:09.388Z,79.40
2018-10-19T12:28:41.288Z,80.40
2018-10-19T12:31:13.507Z,79.20
2018-10-19T12:33:45.783Z,75.80
2018-10-19T12:36:17.634Z,80.20
2018-10-19T12:38:49.573Z,76.60
2018-10-19T12:41:21.652Z,82.00
2018-10-19T12:43:54.005Z,74.00
2018-10-19T12:46:38.432Z,77.60
2018-10-19T12:49:11.013Z,71.80
2018-10-19T12:51:42.971Z,69.20
2018-10-19T12:54:14.742Z,67.80
2018-10-19T12:56:46.711Z,59.60
2018-10-19T12:59:18.503Z,67.40
2018-10-19T13:01:50.628Z,70.60
2018-10-19T13:04:22.690Z,65.80
2018-10-19T13:06:55.370Z,66.20
2018-10-19T13:09:27.235Z,66.20
2018-10-19T13:11:59.329Z,66.60
2018-10-19T13:14:31.803Z,64.20
2018-10-19T13:17:03.778Z,68.00
2018-10-19T13:19:35.636Z,61.60
2018-10-19T13:22:07.794Z,62.20
2018-10-19T13:24:39.943Z,59.60
2018-10-19T13:27:12.151Z,68.00
2018-10-19T13:29:44.142Z,65.60
2018-10-19T13:32:16.284Z,65.20
2018-10-19T13:34:48.284Z,69.60
2018-10-19T13:37:20.251Z,74.20
2018-10-19T13:39:52.231Z,76.40
2018-10-19T13:42:24.245Z,74.00
2018-10-19T13:44:56.393Z,77.80
2018-10-19T13:47:28.612Z,78.60
2018-10-19T13:50:00.737Z,81.80
2018-10-19T13:52:33.521Z,75.80
2018-10-19T13:55:05.426Z,82.80
2018-10-19T13:57:37.534Z,83.80
2018-10-19T14:00:09.372Z,78.60
2018-10-19T14:02:41.296Z,76.80
2018-10-19T14:05:13.392Z,84.20
2018-10-19T14:07:46.584Z,79.20
2018-10-19T14:10:18.403Z,81.40
2018-10-19T14:12:50.708Z,81.40
2018-10-19T14:15:23.105Z,80.60
2018-10-19T14:17:55.023Z,77.60
2018-10-19T14:20:26.841Z,86.20
2018-10-19T14:22:59.003Z,84.60
2018-10-19T14:25:30.776Z,81.40
2018-10-19T14:28:02.828Z,80.60
2018-10-19T14:30:34.727Z,83.40
2018-10-19T14:33:06.810Z,86.80
2018-10-19T14:35:38.727Z,85.60
2018-10-19T14:38:10.873Z,85.00
2018-10-19T14:40:42.950Z,81.20
2018-10-19T14:43:16.050Z,87.00
2018-10-19T14:45:48.566Z,88.00
2018-10-19T14:48:20.597Z,86.20
2018-10-19T14:50:52.613Z,88.20
2018-10-19T14:53:24.577Z,82.20
2018-10-19T14:55:56.554Z,82.00
2018-10-19T14:58:28.782Z,86.20
2018-10-19T15:01:00.851Z,83.80
2018-10-19T15:03:33.108Z,89.40
2018-10-19T15:06:04.895Z,87.00
2018-10-19T15:08:38.210Z,82.80
2018-10-19T15:11:10.273Z,86.80
2018-10-19T15:13:42.480Z,82.20
2018-10-19T15:16:15.918Z,87.60
2018-10-19T15:18:48.331Z,88.80
2018-10-19T15:21:20.583Z,87.80
2018-10-19T15:23:52.857Z,94.60
2018-10-19T15:26:25.114Z,93.80
2018-10-19T15:28:56.949Z,89.40
2018-10-19T15:31:28.974Z,96.20
2018-10-19T15:34:00.930Z,92.20
2018-10-19T15:36:32.953Z,92.40
2018-10-19T15:39:06.036Z,94.00
2018-10-19T15:41:37.878Z,96.80
2018-10-19T15:44:09.999Z,99.00
2018-10-19T15:46:42.506Z,84.00
2018-10-19T15:49:14.750Z,86.20
2018-10-19T15:51:46.671Z,86.80
2018-10-19T15:54:18.614Z,82.00
2018-10-19T15:56:50.782Z,88.00
2018-10-19T15:59:23.276Z,83.20
2018-10-19T16:01:55.239Z,89.20
2018-10-19T16:04:27.333Z,86.80
2018-10-19T16:06:59.120Z,90.20
2018-10-19T16:09:32.021Z,86.60
2018-10-19T16:12:04.208Z,89.00
2018-10-19T16:14:36.172Z,87.00
2018-10-19T16:17:08.614Z,87.60
2018-10-19T16:19:40.834Z,90.80
2018-10-19T16:22:12.822Z,86.60
2018-10-19T16:24:44.682Z,89.80
2018-10-19T16:27:17.020Z,89.40
2018-10-19T16:29:49.099Z,90.00
2018-10-19T16:32:21.282Z,82.40
2018-10-19T16:34:53.315Z,89.00
2018-10-19T16:37:25.654Z,88.80
2018-10-19T16:39:57.989Z,80.00
2018-10-19T16:42:30.154Z,86.60
2018-10-19T16:45:02.218Z,84.80
2018-10-19T16:47:35.032Z,89.20
2018-10-19T16:50:07.374Z,88.00
2018-10-19T16:54:03.917Z,88.60
2018-10-19T16:56:36.024Z,97.00
2018-10-19T16:59:07.994Z,92.80
2018-10-19T17:01:40.155Z,91.60
2018-10-19T17:04:12.761Z,105.00
2018-10-19T17:06:45.500Z,115.20
2018-10-19T17:09:17.687Z,102.60
2018-10-19T17:11:50.006Z,104.20
2018-10-19T17:14:21.896Z,97.00
2018-10-19T17:16:53.957Z,98.40
2018-10-19T17:19:27.930Z,98.20
2018-10-19T17:22:00.214Z,86.80
2018-10-19T17:24:31.781Z,95.40
2018-10-19T17:27:03.847Z,97.00
2018-10-19T17:29:35.865Z,111.80
2018-10-19T17:32:07.989Z,100.00
2018-10-19T17:34:39.643Z,95.40
2018-10-19T17:39:31.542Z,89.00
2018-10-19T17:42:03.454Z,99.80
2018-10-19T17:44:35.459Z,103.00
2018-10-19T17:47:07.712Z,93.00
2018-10-19T17:49:40.349Z,100.80
2018-10-19T17:52:12.021Z,110.60
2018-10-19T17:54:43.916Z,97.00
2018-10-19T17:57:16.065Z,102.60
2018-10-19T17:59:48.025Z,100.40
2018-10-19T18:02:19.890Z,107.40
2018-10-19T18:04:51.831Z,107.20
2018-10-19T18:07:23.882Z,115.40
2018-10-19T18:09:55.961Z,97.80
2018-10-19T18:12:28.127Z,107.40
2018-10-19T18:15:00.254Z,112.80
2018-10-19T18:17:32.014Z,104.40
2018-10-19T18:20:04.602Z,108.20
2018-10-19T18:22:36.813Z,105.20
2018-10-19T18:25:09.153Z,100.40
2018-10-19T18:27:41.022Z,108.20
2018-10-19T18:30:14.054Z,99.20
2018-10-19T18:32:46.462Z,110.40
2018-10-19T18:35:18.448Z,102.80
2018-10-19T18:37:50.473Z,104.20
2018-10-19T18:40:22.254Z,103.40
2018-10-19T18:42:54.105Z,95.20
2018-10-19T18:45:26.079Z,103.20
2018-10-19T18:47:58.143Z,101.80
2018-10-19T18:50:30.711Z,104.60
2018-10-19T18:53:02.801Z,104.20
2018-10-19T18:55:35.148Z,104.40
2018-10-19T18:58:07.003Z,109.40
2018-10-19T19:00:38.874Z,106.20
2018-10-19T19:03:11.207Z,104.40
2018-10-19T19:05:43.458Z,97.20
2018-10-19T19:08:15.637Z,102.40
2018-10-19T19:10:47.694Z,104.20
2018-10-19T19:13:24.326Z,97.00
2018-10-19T19:15:56.532Z,107.00
2018-10-19T19:18:28.193Z,106.80
2018-10-19T19:21:00.965Z,104.20
2018-10-19T19:23:37.280Z,111.20
2018-10-19T19:26:14.670Z,109.40
2018-10-19T19:28:46.811Z,109.20
2018-10-19T19:31:18.901Z,110.20
2018-10-19T19:33:55.422Z,106.80
2018-10-19T19:36:27.140Z,110.20
2018-10-19T19:38:59.096Z,107.40
2018-10-19T19:41:36.001Z,99.20
2018-10-19T19:44:07.869Z,107.60
2018-10-19T19:46:39.726Z,112.60
2018-10-19T19:49:16.332Z,103.60
2018-10-19T19:51:49.088Z,109.40
2018-10-19T19:54:21.129Z,107.60
2018-10-19T19:56:53.144Z,106.00
2018-10-19T19:59:25.060Z,113.60
2018-10-19T20:01:57.305Z,116.80
2018-10-19T20:04:29.651Z,114.20
2018-10-19T20:07:01.947Z,117.40
2018-10-19T20:09:34.776Z,114.80
2018-10-19T20:12:07.264Z,117.00
2018-10-19T20:14:39.501Z,118.00
2018-10-19T20:17:11.814Z,112.80
2018-10-19T20:19:43.839Z,114.80
2018-10-19T20:22:16.332Z,121.80
2018-10-19T20:24:48.342Z,117.00
2018-10-19T20:27:20.384Z,114.60
2018-10-19T20:29:52.493Z,116.60
2018-10-19T20:32:24.473Z,110.40
2018-10-19T20:34:56.705Z,113.40
2018-10-19T20:37:28.957Z,116.00
2018-10-19T20:40:01.063Z,121.40
2018-10-19T20:42:33.051Z,121.40
2018-10-19T20:45:05.369Z,127.00
2018-10-19T20:47:37.457Z,125.80
2018-10-19T20:50:09.793Z,129.20
2018-10-19T20:52:42.539Z,131.00
2018-10-19T20:55:15.635Z,130.60
2018-10-19T20:57:47.692Z,127.40
2018-10-19T21:00:19.758Z,131.40
2018-10-19T21:02:51.664Z,121.20
2018-10-19T21:05:23.432Z,127.40
2018-10-19T21:07:55.615Z,137.20
2018-10-19T21:10:28.061Z,128.40
2018-10-19T21:13:00.265Z,138.60
2018-10-19T21:15:32.236Z,135.60
2018-10-19T21:18:04.376Z,139.20
2018-10-19T21:20:36.396Z,135.20
2018-10-19T21:23:08.748Z,141.60
2018-10-19T21:25:40.752Z,131.60
2018-10-19T21:28:13.088Z,133.20
2018-10-19T21:30:45.166Z,140.60
2018-10-19T21:33:17.402Z,146.60
2018-10-19T21:35:49.120Z,130.40
2018-10-19T21:38:21.115Z,140.80
2018-10-19T21:40:52.967Z,143.20
2018-10-19T21:43:25.109Z,138.60
2018-10-19T21:45:56.906Z,147.40
2018-10-19T21:48:28.981Z,137.20
2018-10-19T21:51:00.982Z,137.80
2018-10-19T21:53:33.460Z,145.80
2018-10-19T21:56:05.485Z,134.00
2018-10-19T21:58:37.773Z,137.40
2018-10-19T22:01:09.843Z,148.20
2018-10-19T22:03:41.978Z,137.80
2018-10-19T22:06:13.966Z,147.00
2018-10-19T22:08:45.913Z,137.80
2018-10-19T22:11:18.353Z,145.40
2018-10-19T22:13:50.558Z,151.20
2018-10-19T22:16:22.853Z,140.20
2018-10-19T22:18:54.999Z,159.00
2018-10-19T22:21:27.305Z,151.00
2018-10-19T22:24:00.038Z,157.60
2018-10-19T22:26:32.219Z,146.20
2018-10-19T22:29:04.340Z,146.80
2018-10-19T22:31:36.507Z,147.80
2018-10-19T22:34:08.442Z,151.60
2018-10-19T22:36:40.421Z,141.40
2018-10-19T22:39:12.712Z,142.20
2018-10-19T22:41:44.762Z,152.60
2018-10-19T22:44:18.095Z,147.20
2018-10-19T22:46:50.196Z,148.40
2018-10-19T22:49:22.138Z,148.20
2018-10-19T22:51:54.254Z,143.00
2018-10-19T22:54:26.764Z,143.20
2018-10-19T22:56:58.805Z,156.00
2018-10-19T22:59:30.679Z,156.80
2018-10-19T23:02:02.552Z,155.60
2018-10-19T23:04:34.704Z,155.60
2018-10-19T23:07:07.173Z,147.20
2018-10-19T23:09:39.468Z,154.20
2018-10-19T23:12:11.741Z,149.40
2018-10-19T23:14:44.386Z,160.40
2018-10-19T23:17:16.614Z,152.40
2018-10-19T23:19:48.723Z,143.40
2018-10-19T23:22:20.802Z,150.00
2018-10-19T23:24:53.322Z,156.20
2018-10-19T23:27:25.286Z,160.00
2018-10-19T23:29:57.451Z,157.80
2018-10-19T23:32:29.152Z,151.00
2018-10-19T23:35:01.514Z,161.20
2018-10-19T23:37:33.637Z,167.20
2018-10-19T23:40:05.985Z,163.20
2018-10-19T23:42:38.104Z,157.20
2018-10-19T23:45:10.591Z,158.20
2018-10-19T23:47:42.578Z,170.20
2018-10-19T23:50:13.246Z,175.80
2018-10-19T23:52:45.203Z,166.00
2018-10-19T23:55:17.678Z,164.20
2018-10-19T23:57:49.707Z,168.00
